createdAt,value
2023-09-19T00:01:42.191Z,17.40
2023-09-19T00:04:10.956Z,17.10
2023-09-19T00:06:38.224Z,17.40
2023-09-19T00:09:05.131Z,17.00
2023-09-19T00:11:32.200Z,17.00
2023-09-19T00:14:01.652Z,17.00
2023-09-19T00:16:28.385Z,17.10
2023-09-19T00:18:55.129Z,17.10
2023-09-19T00:21:21.785Z,17.20
2023-09-19T00:23:48.390Z,17.10
2023-09-19T00:26:15.247Z,17.10
2023-09-19T00:28:41.999Z,17.20
2023-09-19T00:31:10.251Z,17.10
2023-09-19T00:33:37.665Z,17.20
2023-09-19T00:36:06.634Z,17.30
2023-09-19T00:38:33.489Z,17.10
2023-09-19T00:41:01.120Z,16.90
2023-09-19T00:43:28.757Z,17.00
2023-09-19T00:45:56.899Z,17.00
2023-09-19T00:48:24.371Z,17.00
2023-09-19T00:50:51.695Z,16.90
2023-09-19T00:53:23.926Z,16.90
2023-09-19T00:55:51.336Z,16.80
2023-09-19T00:58:19.286Z,16.70
2023-09-19T01:00:46.180Z,16.70
2023-09-19T01:03:14.469Z,16.80
2023-09-19T01:05:41.481Z,16.70
2023-09-19T01:08:08.436Z,16.90
2023-09-19T01:10:35.139Z,16.80
2023-09-19T01:13:01.758Z,16.90
2023-09-19T01:15:41.478Z,16.90
2023-09-19T01:18:08.244Z,17.00
2023-09-19T01:20:34.829Z,17.00
2023-09-19T01:23:09.881Z,17.00
2023-09-19T01:25:42.456Z,17.10
2023-09-19T01:28:30.923Z,17.10
2023-09-19T01:31:00.102Z,17.10
2023-09-19T01:33:27.271Z,17.10
2023-09-19T01:35:56.803Z,17.20
2023-09-19T01:38:24.501Z,17.40
2023-09-19T01:41:07.202Z,17.20
2023-09-19T01:43:38.950Z,17.20
2023-09-19T01:46:10.329Z,17.20
2023-09-19T01:48:43.330Z,17.30
2023-09-19T01:51:11.444Z,17.40
2023-09-19T01:53:44.637Z,17.30
2023-09-19T01:56:15.134Z,17.40
2023-09-19T01:58:49.619Z,17.40
2023-09-19T02:01:18.989Z,17.40
2023-09-19T02:03:47.045Z,17.40
2023-09-19T02:06:18.675Z,17.40
2023-09-19T02:08:48.632Z,17.30
2023-09-19T02:11:15.388Z,17.40
2023-09-19T02:13:42.749Z,18.10
2023-09-19T02:16:12.258Z,17.40
2023-09-19T02:18:40.216Z,17.40
2023-09-19T02:21:07.826Z,17.40
2023-09-19T02:23:34.506Z,17.30
2023-09-19T02:26:07.330Z,17.40
2023-09-19T02:28:34.096Z,17.40
2023-09-19T02:31:00.735Z,17.60
2023-09-19T02:33:27.415Z,17.40
2023-09-19T02:35:58.870Z,17.30
2023-09-19T02:38:28.565Z,17.30
2023-09-19T02:40:56.272Z,17.20
2023-09-19T02:43:23.429Z,17.20
2023-09-19T02:45:56.013Z,17.20
2023-09-19T02:48:22.847Z,17.20
2023-09-19T02:50:53.164Z,17.10
2023-09-19T02:53:20.209Z,17.10
2023-09-19T02:55:47.847Z,17.00
2023-09-19T02:58:15.995Z,16.80
2023-09-19T03:00:43.380Z,16.80
2023-09-19T03:03:10.476Z,16.90
2023-09-19T03:05:39.351Z,16.90
2023-09-19T03:08:06.284Z,16.80
2023-09-19T03:10:33.019Z,16.70
2023-09-19T03:13:01.224Z,16.70
2023-09-19T03:15:27.999Z,16.60
2023-09-19T03:17:55.251Z,16.50
2023-09-19T03:20:22.219Z,16.60
2023-09-19T03:22:49.517Z,16.60
2023-09-19T03:25:18.480Z,16.60
2023-09-19T03:27:45.707Z,16.60
2023-09-19T03:30:14.442Z,16.60
2023-09-19T03:32:45.063Z,16.60
2023-09-19T03:35:12.276Z,16.60
2023-09-19T03:37:39.009Z,16.60
2023-09-19T03:40:06.637Z,16.60
2023-09-19T03:42:33.469Z,16.60
2023-09-19T03:45:05.393Z,16.60
2023-09-19T03:47:32.182Z,17.00
2023-09-19T03:49:58.834Z,16.80
2023-09-19T03:52:26.200Z,16.70
2023-09-19T03:54:52.850Z,16.70
2023-09-19T03:57:21.760Z,17.90
2023-09-19T03:59:48.560Z,16.80
2023-09-19T04:02:23.577Z,16.80
2023-09-19T04:04:50.826Z,16.80
2023-09-19T04:07:18.173Z,16.90
2023-09-19T04:09:44.912Z,16.80
2023-09-19T04:12:11.603Z,16.90
2023-09-19T04:14:38.365Z,16.10
2023-09-19T04:17:07.471Z,16.80
2023-09-19T04:19:35.440Z,16.90
2023-09-19T04:22:02.232Z,16.90
2023-09-19T04:24:28.864Z,16.90
2023-09-19T04:26:55.464Z,16.90
2023-09-19T04:29:22.230Z,17.00
2023-09-19T04:31:48.878Z,16.80
2023-09-19T04:34:18.593Z,16.70
2023-09-19T04:36:45.230Z,16.80
2023-09-19T04:39:13.673Z,16.80
2023-09-19T04:41:41.921Z,16.80
2023-09-19T04:44:08.860Z,16.90
2023-09-19T04:46:36.046Z,16.80
2023-09-19T04:49:03.641Z,16.80
2023-09-19T04:51:35.195Z,16.70
2023-09-19T04:54:02.235Z,16.80
2023-09-19T04:56:29.691Z,16.60
2023-09-19T04:58:56.530Z,16.70
2023-09-19T05:01:23.815Z,16.80
2023-09-19T05:03:53.608Z,16.70
2023-09-19T05:06:23.768Z,16.80
2023-09-19T05:08:53.862Z,16.70
2023-09-19T05:11:23.072Z,16.80
2023-09-19T05:13:51.441Z,16.70
2023-09-19T05:16:18.330Z,16.60
2023-09-19T05:18:45.077Z,16.60
2023-09-19T05:21:12.355Z,16.70
2023-09-19T05:23:39.295Z,16.60
2023-09-19T05:26:06.319Z,16.70
2023-09-19T05:28:35.520Z,16.70
2023-09-19T05:31:03.505Z,16.60
2023-09-19T05:33:32.096Z,16.80
2023-09-19T05:35:58.891Z,16.70
2023-09-19T05:38:27.587Z,16.70
2023-09-19T05:40:55.212Z,16.70
2023-09-19T05:43:22.217Z,16.60
2023-09-19T05:45:49.192Z,16.60
2023-09-19T05:48:16.959Z,16.60
2023-09-19T05:50:44.081Z,16.60
2023-09-19T05:53:13.932Z,16.60
2023-09-19T05:55:41.305Z,16.50
2023-09-19T05:58:08.380Z,16.70
2023-09-19T06:00:36.878Z,16.70
2023-09-19T06:03:05.115Z,16.90
2023-09-19T06:05:33.105Z,17.00
2023-09-19T06:08:08.827Z,17.00
2023-09-19T06:10:36.174Z,17.10
2023-09-19T06:13:05.650Z,17.10
2023-09-19T06:15:34.261Z,17.30
2023-09-19T06:18:00.990Z,17.30
2023-09-19T06:20:27.827Z,17.30
2023-09-19T06:22:55.273Z,17.50
2023-09-19T06:25:23.123Z,17.50
2023-09-19T06:27:53.271Z,17.40
2023-09-19T06:30:20.211Z,17.40
2023-09-19T06:32:47.030Z,17.50
2023-09-19T06:35:14.596Z,17.60
2023-09-19T06:37:41.946Z,17.60
2023-09-19T06:40:14.290Z,18.10
2023-09-19T06:43:03.419Z,17.90
2023-09-19T06:45:30.343Z,18.00
2023-09-19T06:47:59.618Z,18.10
2023-09-19T06:50:27.889Z,18.20
2023-09-19T06:52:56.170Z,17.90
2023-09-19T06:55:26.410Z,17.90
2023-09-19T06:57:55.355Z,17.80
2023-09-19T07:00:25.612Z,18.10
2023-09-19T07:03:04.854Z,18.10
2023-09-19T07:05:32.388Z,17.90
2023-09-19T07:08:00.363Z,17.70
2023-09-19T07:10:28.428Z,17.70
2023-09-19T07:13:01.933Z,17.70
2023-09-19T07:15:28.916Z,17.70
2023-09-19T07:17:57.314Z,17.80
2023-09-19T07:20:27.698Z,18.40
2023-09-19T07:22:55.893Z,18.00
2023-09-19T07:25:22.745Z,18.20
2023-09-19T07:27:49.493Z,18.20
2023-09-19T07:30:17.958Z,18.30
2023-09-19T07:32:44.677Z,18.40
2023-09-19T07:35:11.476Z,18.40
2023-09-19T07:37:38.154Z,18.50
2023-09-19T07:40:10.923Z,18.50
2023-09-19T07:42:40.086Z,18.40
2023-09-19T07:45:07.499Z,18.60
2023-09-19T07:47:34.605Z,18.80
2023-09-19T07:50:03.564Z,19.00
2023-09-19T07:52:30.438Z,19.00
2023-09-19T07:54:58.689Z,19.20
2023-09-19T07:57:26.031Z,19.50
2023-09-19T07:59:53.027Z,19.60
2023-09-19T08:02:19.645Z,19.60
2023-09-19T08:04:50.329Z,19.80
2023-09-19T08:07:17.447Z,19.50
2023-09-19T08:09:47.554Z,19.70
2023-09-19T08:12:15.756Z,19.80
2023-09-19T08:14:42.771Z,20.10
2023-09-19T08:17:09.648Z,20.30
2023-09-19T08:19:37.710Z,20.60
2023-09-19T08:22:04.399Z,21.10
2023-09-19T08:24:31.280Z,21.20
2023-09-19T08:26:58.418Z,21.50
2023-09-19T08:29:29.152Z,21.50
2023-09-19T08:31:56.890Z,21.70
2023-09-19T08:34:24.614Z,21.80
2023-09-19T08:36:57.904Z,22.50
2023-09-19T08:39:24.995Z,22.70
2023-09-19T08:42:01.327Z,23.20
2023-09-19T08:44:31.261Z,23.70
2023-09-19T08:47:10.260Z,23.70
2023-09-19T08:49:49.177Z,23.90
2023-09-19T08:52:21.049Z,24.10
2023-09-19T08:54:49.633Z,24.20
2023-09-19T08:57:22.457Z,24.00
2023-09-19T08:59:50.658Z,24.50
2023-09-19T09:02:19.839Z,24.70
2023-09-19T09:04:46.989Z,24.70
2023-09-19T09:07:14.160Z,23.70
2023-09-19T09:09:43.487Z,23.50
2023-09-19T09:12:14.370Z,23.10
2023-09-19T09:14:41.515Z,23.10
2023-09-19T09:17:08.508Z,22.60
2023-09-19T09:19:35.423Z,21.70
2023-09-19T09:22:11.792Z,21.30
2023-09-19T09:24:40.786Z,21.60
2023-09-19T09:27:12.008Z,22.40
2023-09-19T09:29:42.844Z,23.20
2023-09-19T09:32:20.976Z,23.40
2023-09-19T09:34:52.079Z,23.90
2023-09-19T09:37:23.105Z,24.10
2023-09-19T09:39:52.618Z,23.60
2023-09-19T09:42:42.283Z,23.20
2023-09-19T09:45:34.222Z,22.50
2023-09-19T09:48:04.654Z,21.70
2023-09-19T09:50:51.033Z,21.30
2023-09-19T09:53:35.625Z,21.10
2023-09-19T09:56:07.023Z,21.40
2023-09-19T09:58:38.051Z,22.40
2023-09-19T10:01:11.760Z,23.90
2023-09-19T10:03:44.824Z,25.20
2023-09-19T10:06:26.402Z,25.90
2023-09-19T10:09:06.710Z,25.80
2023-09-19T10:11:33.508Z,25.00
2023-09-19T10:14:02.543Z,24.70
2023-09-19T10:16:32.199Z,23.70
2023-09-19T10:19:02.966Z,23.70
2023-09-19T10:21:31.221Z,23.90
2023-09-19T10:24:01.764Z,24.50
2023-09-19T10:26:32.081Z,25.60
2023-09-19T10:29:01.654Z,26.80
2023-09-19T10:31:29.345Z,25.20
2023-09-19T10:33:56.634Z,24.80
2023-09-19T10:36:26.722Z,25.20
2023-09-19T10:38:56.075Z,25.00
2023-09-19T10:41:23.259Z,25.50
2023-09-19T10:43:50.098Z,26.20
2023-09-19T10:46:16.941Z,26.90
2023-09-19T10:48:49.789Z,27.60
2023-09-19T10:51:17.753Z,27.30
2023-09-19T10:53:48.311Z,26.90
2023-09-19T10:56:28.508Z,26.40
2023-09-19T10:59:08.830Z,27.00
2023-09-19T11:01:58.145Z,26.40
2023-09-19T11:04:43.851Z,26.50
2023-09-19T11:07:17.664Z,27.10
2023-09-19T11:09:44.301Z,26.70
2023-09-19T11:12:10.929Z,27.60
2023-09-19T11:14:41.928Z,27.40
2023-09-19T11:17:18.569Z,27.50
2023-09-19T11:20:13.153Z,27.70
2023-09-19T11:22:59.620Z,27.60
2023-09-19T11:25:30.786Z,29.00
2023-09-19T11:28:19.562Z,28.60
2023-09-19T11:30:46.987Z,28.50
2023-09-19T11:33:30.251Z,28.60
2023-09-19T11:36:16.212Z,29.60
2023-09-19T11:38:50.275Z,29.70
2023-09-19T11:41:22.903Z,30.00
2023-09-19T11:43:53.381Z,29.30
2023-09-19T11:46:22.832Z,29.10
2023-09-19T11:48:50.716Z,28.40
2023-09-19T11:51:23.152Z,27.30
2023-09-19T11:53:53.808Z,26.60
2023-09-19T11:56:25.417Z,25.80
2023-09-19T11:58:55.516Z,25.50
2023-09-19T12:01:26.806Z,26.40
2023-09-19T12:03:55.114Z,27.00
2023-09-19T12:06:22.994Z,27.70
2023-09-19T12:08:51.021Z,27.90
2023-09-19T12:11:18.002Z,28.10
2023-09-19T12:13:45.781Z,27.50
2023-09-19T12:16:25.588Z,27.50
2023-09-19T12:18:52.361Z,26.80
2023-09-19T12:21:23.848Z,27.50
2023-09-19T12:24:14.305Z,27.80
2023-09-19T12:26:44.604Z,28.10
2023-09-19T12:29:12.105Z,29.20
2023-09-19T12:31:49.112Z,30.80
2023-09-19T12:34:17.532Z,29.40
2023-09-19T12:36:44.608Z,28.60
2023-09-19T12:39:11.329Z,27.80
2023-09-19T12:41:38.892Z,28.10
2023-09-19T12:44:10.372Z,27.00
2023-09-19T12:46:37.948Z,27.90
2023-09-19T12:49:21.002Z,28.50
2023-09-19T12:51:48.505Z,28.60
2023-09-19T12:54:18.130Z,29.40
2023-09-19T12:56:51.458Z,29.70
2023-09-19T12:59:18.291Z,29.70
2023-09-19T13:01:47.811Z,29.70
2023-09-19T13:04:22.345Z,30.20
2023-09-19T13:06:50.407Z,30.50
2023-09-19T13:09:18.020Z,31.40
2023-09-19T13:11:45.852Z,32.40
2023-09-19T13:14:17.221Z,31.90
2023-09-19T13:16:59.026Z,31.00
2023-09-19T13:19:42.760Z,30.90
2023-09-19T13:22:32.215Z,30.60
2023-09-19T13:25:00.167Z,31.40
2023-09-19T13:27:28.591Z,30.80
2023-09-19T13:29:55.328Z,30.60
2023-09-19T13:32:21.959Z,31.20
2023-09-19T13:34:48.607Z,31.70
2023-09-19T13:37:21.408Z,31.20
2023-09-19T13:39:48.801Z,29.20
2023-09-19T13:42:15.588Z,28.40
2023-09-19T13:44:42.267Z,27.80
2023-09-19T13:47:11.376Z,27.40
2023-09-19T13:49:39.445Z,28.10
2023-09-19T13:52:06.550Z,27.90
2023-09-19T13:54:33.274Z,28.80
2023-09-19T13:56:59.913Z,28.00
2023-09-19T13:59:26.562Z,28.60
2023-09-19T14:01:54.686Z,27.30
2023-09-19T14:04:23.178Z,27.90
2023-09-19T14:06:49.891Z,28.70
2023-09-19T14:16:17.713Z,28.60
2023-09-19T14:18:45.507Z,28.10
2023-09-19T14:21:12.300Z,28.10
2023-09-19T14:23:39.439Z,27.00
2023-09-19T14:26:09.051Z,26.50
2023-09-19T14:28:36.201Z,27.10
2023-09-19T14:31:07.513Z,27.40
2023-09-19T14:33:34.179Z,27.70
2023-09-19T14:36:07.354Z,27.20
2023-09-19T14:38:34.721Z,27.40
2023-09-19T14:41:02.338Z,27.40
2023-09-19T14:43:31.035Z,27.10
2023-09-19T14:45:58.476Z,26.30
2023-09-19T14:48:26.804Z,26.00
2023-09-19T14:50:53.764Z,25.30
2023-09-19T14:53:20.837Z,24.80
2023-09-19T14:55:48.887Z,24.60
2023-09-19T14:58:15.684Z,24.70
2023-09-19T15:00:42.415Z,24.40
2023-09-19T15:03:09.266Z,24.00
2023-09-19T15:05:36.156Z,24.00
2023-09-19T15:08:03.733Z,23.90
2023-09-19T15:10:31.498Z,23.70
2023-09-19T15:12:58.243Z,23.60
2023-09-19T15:15:24.867Z,23.30
2023-09-19T15:17:52.357Z,23.20
2023-09-19T15:20:19.406Z,23.10
2023-09-19T15:22:47.183Z,23.10
2023-09-19T15:25:13.900Z,22.90
2023-09-19T15:27:41.592Z,23.00
2023-09-19T15:30:08.460Z,22.90
2023-09-19T15:32:35.211Z,22.80
2023-09-19T15:35:02.092Z,22.80
2023-09-19T15:37:28.796Z,22.80
2023-09-19T15:39:55.436Z,22.50
2023-09-19T15:42:22.188Z,22.50
2023-09-19T15:44:50.947Z,22.40
2023-09-19T15:47:17.668Z,22.30
2023-09-19T15:49:45.223Z,22.30
2023-09-19T15:52:12.026Z,22.20
2023-09-19T15:54:43.193Z,22.20
2023-09-19T15:57:09.863Z,22.00
2023-09-19T15:59:36.659Z,22.00
2023-09-19T16:02:03.496Z,22.00
2023-09-19T16:04:33.910Z,21.90
2023-09-19T16:07:03.117Z,21.80
2023-09-19T16:09:29.872Z,21.70
2023-09-19T16:11:56.499Z,21.80
2023-09-19T16:14:23.184Z,21.70
2023-09-19T16:16:51.211Z,21.60
2023-09-19T16:19:18.316Z,21.70
2023-09-19T16:21:45.216Z,21.70
2023-09-19T16:24:12.206Z,21.60
2023-09-19T16:26:38.978Z,21.60
2023-09-19T16:29:05.898Z,21.40
2023-09-19T16:31:34.058Z,21.50
2023-09-19T16:34:01.174Z,21.40
2023-09-19T16:36:29.192Z,21.40
2023-09-19T16:38:56.073Z,21.40
2023-09-19T16:41:22.865Z,21.30
2023-09-19T16:43:49.698Z,21.30
2023-09-19T16:46:19.162Z,21.40
2023-09-19T16:49:02.228Z,21.30
2023-09-19T16:51:30.246Z,21.20
2023-09-19T16:53:57.290Z,21.20
2023-09-19T16:56:24.068Z,21.20
2023-09-19T16:58:52.702Z,21.00
2023-09-19T17:01:21.120Z,21.00
2023-09-19T17:03:49.273Z,20.80
2023-09-19T17:06:19.086Z,20.80
2023-09-19T17:08:46.299Z,20.60
2023-09-19T17:11:15.141Z,20.50
2023-09-19T17:13:42.405Z,20.30
2023-09-19T17:16:10.298Z,20.20
2023-09-19T17:18:36.967Z,20.10
2023-09-19T17:21:06.528Z,20.10
2023-09-19T17:23:37.183Z,19.90
2023-09-19T17:26:05.522Z,19.70
2023-09-19T17:28:33.008Z,19.90
2023-09-19T17:30:59.727Z,19.40
2023-09-19T17:33:27.551Z,19.30
2023-09-19T17:36:07.941Z,19.10
2023-09-19T17:38:34.853Z,19.00
2023-09-19T17:41:04.170Z,18.90
2023-09-19T17:43:35.303Z,18.80
2023-09-19T17:46:10.944Z,18.70
2023-09-19T17:48:39.264Z,18.50
2023-09-19T17:51:07.938Z,18.50
2023-09-19T17:53:34.643Z,18.50
2023-09-19T17:56:02.794Z,18.40
2023-09-19T17:58:29.463Z,18.20
2023-09-19T18:00:57.671Z,18.30
2023-09-19T18:03:26.966Z,18.10
2023-09-19T18:05:54.297Z,17.60
2023-09-19T18:08:23.783Z,17.40
2023-09-19T18:10:50.560Z,17.60
2023-09-19T18:13:17.493Z,17.60
2023-09-19T18:15:44.255Z,17.50
2023-09-19T18:18:12.784Z,17.40
2023-09-19T18:20:41.162Z,18.10
2023-09-19T18:23:08.579Z,17.80
2023-09-19T18:25:35.672Z,17.20
2023-09-19T18:28:03.116Z,17.10
2023-09-19T18:30:29.839Z,17.00
2023-09-19T18:32:57.907Z,17.00
2023-09-19T18:35:32.098Z,17.00
2023-09-19T18:37:59.287Z,16.90
2023-09-19T18:40:25.962Z,16.80
2023-09-19T18:42:53.194Z,16.80
2023-09-19T18:45:34.802Z,16.80
2023-09-19T18:48:07.572Z,16.70
2023-09-19T18:50:35.900Z,16.60
2023-09-19T18:53:02.746Z,16.40
2023-09-19T18:55:29.569Z,16.50
2023-09-19T18:57:56.240Z,16.50
2023-09-19T19:00:27.063Z,16.60
2023-09-19T19:02:56.816Z,16.60
2023-09-19T19:05:24.541Z,16.40
2023-09-19T19:07:51.370Z,16.20
2023-09-19T19:10:18.514Z,16.30
2023-09-19T19:12:45.631Z,15.80
2023-09-19T19:15:12.359Z,15.90
2023-09-19T19:17:39.137Z,15.80
2023-09-19T19:20:07.624Z,16.60
2023-09-19T19:22:34.892Z,16.10
2023-09-19T19:25:01.812Z,16.00
2023-09-19T19:27:30.847Z,16.00
2023-09-19T19:29:57.623Z,15.90
2023-09-19T19:32:27.399Z,15.90
2023-09-19T19:34:55.963Z,15.90
2023-09-19T19:37:22.744Z,15.80
2023-09-19T19:39:49.410Z,15.80
2023-09-19T19:42:16.067Z,15.80
2023-09-19T19:44:42.734Z,15.70
2023-09-19T19:47:09.958Z,15.70
2023-09-19T19:49:37.384Z,15.60
2023-09-19T19:52:04.350Z,14.70
2023-09-19T19:54:31.641Z,15.50
2023-09-19T19:56:58.404Z,15.50
2023-09-19T19:59:25.075Z,15.50
2023-09-19T20:01:51.874Z,15.40
2023-09-19T20:04:19.183Z,15.40
2023-09-19T20:06:46.432Z,15.40
2023-09-19T20:09:14.518Z,15.40
2023-09-19T20:11:41.440Z,15.40
2023-09-19T20:14:08.359Z,15.40
2023-09-19T20:16:37.558Z,15.40
2023-09-19T20:19:05.559Z,15.30
2023-09-19T20:21:32.360Z,15.30
2023-09-19T20:24:06.660Z,15.20
2023-09-19T20:26:39.441Z,15.20
2023-09-19T20:29:06.709Z,15.10
2023-09-19T20:31:34.845Z,15.00
2023-09-19T20:34:01.598Z,15.00
2023-09-19T20:36:28.266Z,15.00
2023-09-19T20:38:55.927Z,14.90
2023-09-19T20:41:23.089Z,14.90
2023-09-19T20:43:49.946Z,14.80
2023-09-19T20:46:17.111Z,14.80
2023-09-19T20:48:46.916Z,14.90
2023-09-19T20:51:14.475Z,14.40
2023-09-19T20:53:42.891Z,15.10
2023-09-19T20:56:09.664Z,14.70
2023-09-19T20:58:36.545Z,14.60
2023-09-19T21:01:05.088Z,14.90
2023-09-19T21:03:32.242Z,14.70
2023-09-19T21:06:04.242Z,14.70
2023-09-19T21:08:33.274Z,14.60
2023-09-19T21:11:00.411Z,15.20
2023-09-19T21:13:29.107Z,15.30
2023-09-19T21:15:55.959Z,15.10
2023-09-19T21:18:22.689Z,15.30
2023-09-19T21:20:50.024Z,14.70
2023-09-19T21:23:16.965Z,14.80
2023-09-19T21:25:43.847Z,15.20
2023-09-19T21:28:10.512Z,14.50
2023-09-19T21:33:04.570Z,14.40
2023-09-19T21:35:31.267Z,14.60
2023-09-19T21:37:57.922Z,14.60
2023-09-19T21:40:25.005Z,14.80
2023-09-19T21:42:51.619Z,14.70
2023-09-19T21:47:45.439Z,14.50
2023-09-19T21:50:12.398Z,14.50
2023-09-19T21:52:39.058Z,15.00
2023-09-19T21:55:06.037Z,14.70
2023-09-19T21:57:32.750Z,14.40
2023-09-19T21:59:59.452Z,14.40
2023-09-19T22:02:26.879Z,14.30
2023-09-19T22:04:53.644Z,15.30
2023-09-19T22:07:20.244Z,14.60
2023-09-19T22:09:46.850Z,14.20
2023-09-19T22:12:14.476Z,14.30
2023-09-19T22:14:41.102Z,14.30
2023-09-19T22:17:09.024Z,14.30
2023-09-19T22:19:39.865Z,14.10
2023-09-19T22:22:09.808Z,14.10
2023-09-19T22:24:36.802Z,14.20
2023-09-19T22:27:03.554Z,14.10
2023-09-19T22:29:30.337Z,14.20
2023-09-19T22:31:57.155Z,14.00
2023-09-19T22:34:23.818Z,14.10
2023-09-19T22:36:55.489Z,14.10
2023-09-19T22:39:26.207Z,14.20
2023-09-19T22:41:54.679Z,14.50
2023-09-19T22:44:27.078Z,14.00
2023-09-19T22:46:54.680Z,14.10
2023-09-19T22:49:21.683Z,14.20
2023-09-19T22:51:51.968Z,14.10
2023-09-19T22:54:27.305Z,14.70
2023-09-19T22:56:54.568Z,14.20
2023-09-19T22:59:21.914Z,15.10
2023-09-19T23:01:51.992Z,14.90
2023-09-19T23:04:19.267Z,14.00
2023-09-19T23:06:52.301Z,14.50
2023-09-19T23:09:23.409Z,14.40
2023-09-19T23:11:54.523Z,14.20
2023-09-19T23:14:21.375Z,14.20
2023-09-19T23:16:48.756Z,14.30
2023-09-19T23:19:24.237Z,15.00
2023-09-19T23:21:55.478Z,14.30
2023-09-19T23:24:27.879Z,14.20
2023-09-19T23:27:05.767Z,14.30
2023-09-19T23:29:34.531Z,14.30
2023-09-19T23:32:02.273Z,14.10
2023-09-19T23:34:28.994Z,14.30
2023-09-19T23:36:57.003Z,14.70
2023-09-19T23:39:23.796Z,14.00
2023-09-19T23:41:50.464Z,14.10
2023-09-19T23:44:17.473Z,14.90
2023-09-19T23:46:46.434Z,14.10
2023-09-19T23:49:13.206Z,14.20
2023-09-19T23:51:40.254Z,14.40
2023-09-19T23:54:08.682Z,14.30
2023-09-19T23:56:40.036Z,14.00
2023-09-19T23:59:07.539Z,14.70
